Thunder radar more information blitzortung!


avis per Pluja more information rain snow radar


Visita la nostra xarxa de llocs de meteo:

Template documentation
and downloads

And another site



Rain From: 18-10-2018 10:00 Until: 16:59 warning for: Rain Level: Yellow info button

Pagina Historial Weather Underground text

Diari Resum Abril 19, 2016 Unitats:  Mètric    Imperial   Tant
« Previous Dia
SegĂźent Dia »
Diari Setmana Mensual Anual Personalitzada
  Maxima: Minima: Media:
Temperatura: -17.8 °C -13.8 °C -9.6 °C
Punt de rosada: -17.8 °C -16.9 °C -14.8 °C
Humitat: Humidity % 42 % 54 %
Wind Speed: 0 km/h 0 km/h 8.9 km/h
RĂ fegues de vent: 0 km/h - -
Vent:- - SE
Pression baro: 0 hPa 34496.6 hPa -
Precipitacions: 0 mm    
Historical Graphs
 
 
Dades de taula per Abril 19, 2016
Temps Temperatura Punt de rosada Pression baro Vent Wind Speed RĂ fegues de vent Humitat Rainfall Rate (Hourly)
-17.8 °C -17.8 °C 0 hPa Calm     Humidity % 0 mm
00:00 -13.3 °C -15.6 °C 34601.5 hPa SSW 5.1 km/h 5.1 km/h 75 % 0 mm
00:02 -9 °C -14 °C 34533.8 hPa ESE 26.9 km/h 26.9 km/h 55 % 0 mm
00:10 -13.3 °C -15.5 °C 34601.5 hPa Calm   5.1 km/h 76 % 0 mm
00:20 -13.3 °C -15.5 °C 34567.7 hPa WSW 5.1 km/h 5.1 km/h 76 % 0 mm
00:30 -13.3 °C -15.5 °C 34601.5 hPa Calm     76 % 0 mm
00:40 -13.3 °C -15.4 °C 34601.5 hPa ENE 2.6 km/h 5.1 km/h 77 % 0 mm
00:50 -13.3 °C -15.4 °C 34601.5 hPa Calm   2.6 km/h 77 % 0 mm
01:00 -13.3 °C -15.4 °C 34601.5 hPa Calm     77 % 0 mm
01:10 -13.3 °C -15.4 °C 34601.5 hPa Calm     77 % 0 mm
01:20 -13.4 °C -15.5 °C 34601.5 hPa NE 2.6 km/h 5.1 km/h 77 % 0 mm
01:30 -13.4 °C -15.6 °C 34601.5 hPa Calm   2.6 km/h 77 % 0 mm
01:40 -13.6 °C -15.7 °C 34601.5 hPa Calm   2.6 km/h 77 % 0 mm
01:50 -13.6 °C -15.6 °C 34601.5 hPa Calm     78 % 0 mm
02:00 -13.7 °C -15.7 °C 34601.5 hPa Calm     78 % 0 mm
02:10 -13.8 °C -15.8 °C 34601.5 hPa Calm     78 % 0 mm
02:20 -13.8 °C -15.8 °C 34601.5 hPa Calm   2.6 km/h 78 % 0 mm
02:30 -13.7 °C -15.7 °C 34601.5 hPa SSE 2.6 km/h 2.6 km/h 78 % 0 mm
02:40 -13.7 °C -15.8 °C 34601.5 hPa East 2.6 km/h 5.1 km/h 77 % 0 mm
02:50 -13.7 °C -15.7 °C 34601.5 hPa SSW 2.6 km/h 5.1 km/h 78 % 0 mm
03:00 -13.4 °C -15.4 °C 34601.5 hPa South 2.6 km/h 5.1 km/h 78 % 0 mm
03:10 -13.3 °C -15.4 °C 34601.5 hPa SE 5.1 km/h 5.1 km/h 77 % 0 mm
03:20 -13.1 °C -15.1 °C 34601.5 hPa South 5.1 km/h 5.1 km/h 78 % 0 mm
03:30 -13 °C -15.2 °C 34601.5 hPa SSW 5.1 km/h 5.1 km/h 76 % 0 mm
03:40 -13 °C -15.2 °C 34601.5 hPa SW 2.6 km/h 7.7 km/h 76 % 0 mm
03:50 -12.7 °C -14.8 °C 34601.5 hPa Calm   5.1 km/h 77 % 0 mm
04:00 -12.7 °C -14.9 °C 34601.5 hPa SW 5.1 km/h 7.7 km/h 76 % 0 mm
04:10 -12.4 °C -14.8 °C 34601.5 hPa SW 5.1 km/h 5.1 km/h 75 % 0 mm
04:20 -12.2 °C -14.6 °C 34601.5 hPa SW 2.6 km/h 5.1 km/h 75 % 0 mm
04:30 -11.7 °C -14.1 °C 34601.5 hPa SW 5.1 km/h 7.7 km/h 74 % 0 mm
04:40 -11.3 °C -14.2 °C 34601.5 hPa Calm   7.7 km/h 71 % 0 mm
04:50 -10.8 °C -13.8 °C 34635.4 hPa ENE 5.1 km/h 7.7 km/h 70 % 0 mm
05:00 -10.9 °C -14.2 °C 34601.5 hPa ENE 7.7 km/h 10.3 km/h 67 % 0 mm
05:10 -10.3 °C -13.8 °C 34601.5 hPa East 5.1 km/h 7.7 km/h 66 % 0 mm
05:20 -9.9 °C -13.6 °C 34601.5 hPa ESE 2.6 km/h 5.1 km/h 64 % 0 mm
05:30 -9.7 °C -13.6 °C 34601.5 hPa SE 2.6 km/h 5.1 km/h 63 % 0 mm
05:40 -9.7 °C -13.7 °C 34601.5 hPa NNE 5.1 km/h 10.3 km/h 62 % 0 mm
05:50 -9.7 °C -14 °C 34601.5 hPa North 7.7 km/h 7.7 km/h 60 % 0 mm
06:00 -9.4 °C -13.7 °C 34601.5 hPa WSW 2.6 km/h 5.1 km/h 60 % 0 mm
11:02 -9.4 °C -13.7 °C 34601.5 hPa ESE 26.9 km/h 26.9 km/h 60 % 0 mm
11:07 -9.1 °C -13.7 °C 34601.5 hPa South 4.2 km/h 4.2 km/h 58 % 0 mm
11:12 -9 °C -13.7 °C 34601.5 hPa South 4.2 km/h 4.2 km/h 57 % 0 mm
11:17 -8.8 °C -13.5 °C 34601.5 hPa SW 6 km/h 6 km/h 57 % 0 mm
11:22 -8.8 °C -13.5 °C 34601.5 hPa SSE 9 km/h   57 % 0 mm
11:27 -8.6 °C -13.5 °C 34601.5 hPa Calm     56 % 0 mm
11:32 -8.7 °C -13.4 °C 34601.5 hPa Calm     57 % 0 mm
11:37 -8.7 °C -13.6 °C 34601.5 hPa SSW 3.1 km/h 6.3 km/h 56 % 0 mm
11:42 -8.2 °C -13.3 °C 34601.5 hPa SSW 3.1 km/h 6.3 km/h 55 % 0 mm
11:47 -8.2 °C -13.4 °C 34601.5 hPa SSW 3.1 km/h 6.3 km/h 54 % 0 mm
11:52 -8.4 °C -13.3 °C 34601.5 hPa SSW 3.1 km/h 6.3 km/h 56 % 0 mm
11:57 -8.2 °C -13.4 °C 34601.5 hPa SSW 3.1 km/h 6.3 km/h 54 % 0 mm
12:02 -8.1 °C -13.3 °C 34601.5 hPa SSW 3.1 km/h 6.3 km/h 54 % 0 mm
12:07 -8 °C -13.2 °C 34601.5 hPa SSW 3.1 km/h 6.3 km/h 54 % 0 mm
12:17 -7.9 °C -13.3 °C 34601.5 hPa NNE 9 km/h 9 km/h 53 % 0 mm
12:22 -7.9 °C -13.2 °C 34601.5 hPa ENE 11.9 km/h 11.9 km/h 54 % 0 mm
12:27 -7.8 °C -13.2 °C 34601.5 hPa ESE 11.9 km/h 11.9 km/h 53 % 0 mm
12:32 -7.9 °C -13.3 °C 34601.5 hPa ESE 15 km/h 15 km/h 53 % 0 mm
12:37 -7.9 °C -13.3 °C 34601.5 hPa NE 17.9 km/h 17.9 km/h 53 % 0 mm
12:42 -7.7 °C -13.1 °C 34601.5 hPa SW 6.3 km/h 6.3 km/h 53 % 0 mm
12:47 -7.5 °C -12.9 °C 34601.5 hPa NE 11.9 km/h 11.9 km/h 53 % 0 mm
12:52 -7.4 °C -12.9 °C 34601.5 hPa West 6 km/h 6 km/h 53 % 0 mm
12:57 -7.3 °C -12.7 °C 34601.5 hPa West 6.8 km/h 6.8 km/h 53 % 0 mm
13:02 -7.1 °C -12.7 °C 34601.5 hPa NW 3.1 km/h 3.1 km/h 52 % 0 mm
13:12 -7 °C -12.8 °C 34601.5 hPa ESE 15.6 km/h 15.6 km/h 51 % 0 mm
13:17 -6.9 °C -12.7 °C 34567.7 hPa South 6 km/h 6 km/h 51 % 0 mm
13:22 -6.9 °C -12.9 °C 34567.7 hPa SSW 11.9 km/h 11.9 km/h 50 % 0 mm
13:27 -6.7 °C -12.4 °C 34567.7 hPa WNW 15 km/h 15 km/h 51 % 0 mm
13:32 -6.6 °C -12.6 °C 34567.7 hPa West 6 km/h 6 km/h 50 % 0 mm
13:37 -6.5 °C -12.4 °C 34567.7 hPa NNE 9 km/h 9 km/h 50 % 0 mm
13:42 -6.5 °C -12.7 °C 34567.7 hPa NNE 9 km/h 9 km/h 49 % 0 mm
13:47 -6.4 °C -12.6 °C 34601.5 hPa ESE 11.9 km/h 11.9 km/h 49 % 0 mm
13:52 -6.2 °C -12.4 °C 34601.5 hPa ESE 17.9 km/h 17.9 km/h 49 % 0 mm
13:57 -6.3 °C -12.4 °C 34601.5 hPa SSE 15 km/h 15 km/h 49 % 0 mm
14:02 -6.1 °C -12.4 °C 34567.7 hPa NNE 15.3 km/h 15.3 km/h 48 % 0 mm
14:07 -6 °C -12.4 °C 34567.7 hPa South 9 km/h 9 km/h 48 % 0 mm
14:12 -5.9 °C -12.4 °C 34567.7 hPa ENE 6 km/h 6 km/h 47 % 0 mm
14:17 -5.6 °C -12.2 °C 34567.7 hPa SSE 14 km/h 14 km/h 47 % 0 mm
14:22 -5.8 °C -12.3 °C 34567.7 hPa SSE 23.8 km/h 23.8 km/h 47 % 0 mm
14:27 -5.8 °C -12.6 °C 34567.7 hPa ESE 11.9 km/h 11.9 km/h 46 % 0 mm
14:32 -5.7 °C -12.4 °C 34567.7 hPa East 11.1 km/h 11.1 km/h 46 % 0 mm
14:37 -5.8 °C -12.7 °C 34567.7 hPa ESE 11.9 km/h 11.9 km/h 45 % 0 mm
14:47 -5.9 °C -12.8 °C 34533.8 hPa East 15 km/h 15 km/h 45 % 0 mm
14:52 -5.8 °C -12.9 °C 34533.8 hPa South 11.9 km/h 11.9 km/h 44 % 0 mm
14:57 -5.5 °C -12.4 °C 34533.8 hPa South 6 km/h 6 km/h 45 % 0 mm
15:02 -5.4 °C -12.6 °C 34533.8 hPa SSE 12.7 km/h 12.7 km/h 44 % 0 mm
15:07 -5.3 °C -12.4 °C 34533.8 hPa SW 9.3 km/h 9.3 km/h 44 % 0 mm
15:12 -5.6 °C -12.9 °C 34533.8 hPa SSE 20.9 km/h 20.9 km/h 43 % 0 mm
15:17 -5.9 °C -13.2 °C 34533.8 hPa East 17.9 km/h 17.9 km/h 43 % 0 mm
15:22 -5.9 °C -13.2 °C 34533.8 hPa ENE 19.6 km/h 19.6 km/h 43 % 0 mm
15:27 -6 °C -13.3 °C 34533.8 hPa ESE 15 km/h 15 km/h 43 % 0 mm
15:32 -6.1 °C -13.3 °C 34533.8 hPa ESE 17.9 km/h 17.9 km/h 43 % 0 mm
15:37 -6.1 °C -13.6 °C 34533.8 hPa South 15 km/h 15 km/h 42 % 0 mm
15:42 -6.2 °C -13.3 °C 34533.8 hPa ESE 9 km/h 9.8 km/h 44 % 0 mm
15:47 -6.1 °C -13.4 °C 34533.8 hPa South 9 km/h 9 km/h 43 % 0 mm
15:52 -5.9 °C -13 °C 34533.8 hPa SW 15 km/h 15 km/h 44 % 0 mm
15:57 -6.2 °C -13.3 °C 34533.8 hPa WSW 20.9 km/h 20.9 km/h 44 % 0 mm
16:07 -6.6 °C -13.7 °C 34533.8 hPa SSW 20.9 km/h 20.9 km/h 44 % 0 mm
16:12 -6.8 °C -13.8 °C 34533.8 hPa WSW 17.9 km/h 17.9 km/h 44 % 0 mm
16:17 -7.1 °C -14.2 °C 34567.7 hPa South 20.9 km/h 20.9 km/h 43 % 0 mm
16:22 -6.9 °C -14.1 °C 34567.7 hPa SSW 20.9 km/h 20.9 km/h 43 % 0 mm
16:27 -6.9 °C -14.3 °C 34567.7 hPa SSW 22 km/h 22 km/h 42 % 0 mm
16:32 -7 °C -14.3 °C 34533.8 hPa WSW 17.9 km/h 17.9 km/h 42 % 0 mm
16:37 -6.8 °C -14.2 °C 34533.8 hPa ESE 15 km/h 15 km/h 42 % 0 mm
16:42 -6.8 °C -14.2 °C 34533.8 hPa SW 16.6 km/h 16.6 km/h 42 % 0 mm
16:47 -7.2 °C -14.5 °C 34533.8 hPa SW 23.8 km/h 23.8 km/h 42 % 0 mm
16:52 -7.2 °C -14.5 °C 34533.8 hPa SW 17.9 km/h 17.9 km/h 42 % 0 mm
16:57 -7.2 °C -14.6 °C 34533.8 hPa WSW 15 km/h 15 km/h 42 % 0 mm
17:02 -7.4 °C -14.7 °C 34533.8 hPa South 17.9 km/h 17.9 km/h 42 % 0 mm
17:07 -7.3 °C -14.7 °C 34533.8 hPa West 8 km/h 8 km/h 42 % 0 mm
17:12 -7.2 °C -14.5 °C 34533.8 hPa SSW 11.9 km/h 11.9 km/h 42 % 0 mm
17:17 -7.3 °C -14.6 °C 34533.8 hPa WSW 15 km/h 15 km/h 42 % 0 mm
17:22 -7.3 °C -14.6 °C 34533.8 hPa WSW 12.7 km/h 12.7 km/h 42 % 0 mm
17:27 -7.4 °C -14.7 °C 34533.8 hPa WSW 20.9 km/h 20.9 km/h 42 % 0 mm
17:32 -7.6 °C -14.9 °C 34533.8 hPa WSW 19.2 km/h 19.2 km/h 42 % 0 mm
17:37 -7.6 °C -14.9 °C 34533.8 hPa SSW 11.9 km/h 11.9 km/h 42 % 0 mm
17:42 -7.7 °C -14.9 °C 34533.8 hPa SSW 11.9 km/h 11.9 km/h 42 % 0 mm
17:47 -7.9 °C -15.1 °C 34496.6 hPa ESE 17.9 km/h 17.9 km/h 43 % 0 mm
17:53 -8.3 °C -15.3 °C 34496.6 hPa ESE 31.9 km/h 31.9 km/h 43 % 0 mm
17:55 -10.9 °C -15.9 °C 34567.7 hPa NE 5.1 km/h 5.1 km/h 54 % 0 mm
17:58 -8.6 °C -15.3 °C 34496.6 hPa ESE 26.9 km/h 26.9 km/h 45 % 0 mm
18:03 -8.8 °C -15.4 °C 34533.8 hPa ESE 26.4 km/h 26.4 km/h 45 % 0 mm
18:05 -10.9 °C -15.8 °C 34567.7 hPa NE 5.1 km/h 5.1 km/h 55 % 0 mm
18:08 -8.9 °C -15.5 °C 34533.8 hPa ENE 20.9 km/h 20.9 km/h 45 % 0 mm
18:13 -9.1 °C -15.7 °C 34533.8 hPa ENE 23.8 km/h 23.8 km/h 45 % 0 mm
18:15 -10.9 °C -15.8 °C 34567.7 hPa NE 2.6 km/h 5.1 km/h 55 % 0 mm
18:18 -9.1 °C -15.6 °C 34533.8 hPa ENE 19.2 km/h 19.2 km/h 46 % 0 mm
18:23 -9.1 °C -15.6 °C 34533.8 hPa ESE 17.9 km/h 17.9 km/h 46 % 0 mm
18:25 -11 °C -15.7 °C 34567.7 hPa ENE 2.6 km/h 5.1 km/h 56 % 0 mm
18:28 -9.2 °C -15.7 °C 34533.8 hPa ESE 12.7 km/h 12.7 km/h 46 % 0 mm
18:33 -9.3 °C -15.7 °C 34533.8 hPa ESE 11.9 km/h 11.9 km/h 46 % 0 mm
18:35 -11 °C -15.7 °C 34567.7 hPa ENE 2.6 km/h 5.1 km/h 56 % 0 mm
18:38 -9.3 °C -15.7 °C 34533.8 hPa ENE 17.9 km/h 17.9 km/h 46 % 0 mm
18:43 -9.4 °C -15.7 °C 34533.8 hPa ESE 15 km/h 15 km/h 47 % 0 mm
18:45 -11.1 °C -15.8 °C 34567.7 hPa NE 2.6 km/h 5.1 km/h 56 % 0 mm
18:48 -9.5 °C -15.7 °C 34496.6 hPa ESE 15 km/h 15 km/h 47 % 0 mm
18:53 -9.5 °C -15.7 °C 34496.6 hPa SE 17.9 km/h 17.9 km/h 47 % 0 mm
18:55 -11.1 °C -15.7 °C 34567.7 hPa NE 2.6 km/h 5.1 km/h 57 % 0 mm
19:03 -9.6 °C -15.8 °C 34533.8 hPa SE 15 km/h 15 km/h 47 % 0 mm
19:05 -11 °C -15.6 °C 34567.7 hPa NE 2.6 km/h 5.1 km/h 57 % 0 mm
19:08 -9.6 °C -15.8 °C 34533.8 hPa SSW 11.9 km/h 11.9 km/h 47 % 0 mm
19:13 -9.6 °C -15.6 °C 34533.8 hPa NE 11.9 km/h 11.9 km/h 48 % 0 mm
19:15 -11 °C -15.7 °C 34567.7 hPa ENE 5.1 km/h 5.1 km/h 56 % 0 mm
19:18 -9.6 °C -15.7 °C 34567.7 hPa SE 11.9 km/h 11.9 km/h 48 % 0 mm
19:23 -9.6 °C -15.7 °C 34567.7 hPa ENE 11.9 km/h 11.9 km/h 48 % 0 mm
19:25 -10.9 °C -15.7 °C 34567.7 hPa ENE 5.1 km/h 5.1 km/h 56 % 0 mm
19:28 -9.7 °C -15.7 °C 34567.7 hPa East 17.9 km/h 17.9 km/h 48 % 0 mm
19:33 -9.7 °C -15.8 °C 34533.8 hPa ESE 9.3 km/h 11.6 km/h 48 % 0 mm
19:35 -10.9 °C -15.8 °C 34533.8 hPa ENE 2.6 km/h 5.1 km/h 55 % 0 mm
19:38 -9.8 °C -15.8 °C 34533.8 hPa ENE 17.9 km/h 17.9 km/h 48 % 0 mm
19:43 -9.8 °C -15.7 °C 34533.8 hPa ESE 15 km/h 15 km/h 49 % 0 mm
19:45 -11 °C -15.9 °C 34533.8 hPa Calm   2.6 km/h 55 % 0 mm
19:48 -9.8 °C -15.7 °C 34496.6 hPa ENE 15 km/h 15.6 km/h 49 % 0 mm
19:53 -9.9 °C -15.8 °C 34496.6 hPa ENE 15 km/h 15 km/h 49 % 0 mm
19:55 -11.1 °C -16 °C 34533.8 hPa Calm   2.6 km/h 55 % 0 mm
19:58 -9.9 °C -15.8 °C 34496.6 hPa ESE 15 km/h 15 km/h 49 % 0 mm
20:03 -9.9 °C -15.8 °C 34533.8 hPa ESE 17.9 km/h 17.9 km/h 49 % 0 mm
20:05 -11.4 °C -16.2 °C 34567.7 hPa SW 5.1 km/h 5.1 km/h 55 % 0 mm
20:08 -9.9 °C -15.7 °C 34533.8 hPa East 11.9 km/h 11.9 km/h 50 % 0 mm
20:13 -9.9 °C -15.7 °C 34533.8 hPa ESE 11.9 km/h 11.9 km/h 50 % 0 mm
20:15 -11.3 °C -16.2 °C 34567.7 hPa Calm   7.7 km/h 55 % 0 mm
20:18 -10 °C -15.7 °C 34567.7 hPa WSW 6.8 km/h 6.8 km/h 50 % 0 mm
20:23 -10 °C -15.7 °C 34567.7 hPa ESE 7.6 km/h 8.5 km/h 50 % 0 mm
20:25 -11.3 °C -16.2 °C 34567.7 hPa WSW 2.6 km/h 5.1 km/h 55 % 0 mm
20:28 -10.1 °C -15.8 °C 34567.7 hPa ESE 9 km/h 9 km/h 50 % 0 mm
20:33 -10.1 °C -15.8 °C 34567.7 hPa SSE 3.7 km/h   50 % 0 mm
20:35 -11.3 °C -16.2 °C 34533.8 hPa West 2.6 km/h 5.1 km/h 55 % 0 mm
20:38 -10.2 °C -15.7 °C 34567.7 hPa ESE 9 km/h 9 km/h 51 % 0 mm
20:45 -11.2 °C -16.2 °C 34533.8 hPa NNW 2.6 km/h 10.3 km/h 54 % 0 mm
20:48 -10.3 °C -15.8 °C 34567.7 hPa ESE 8.5 km/h 8.5 km/h 51 % 0 mm
20:53 -10.3 °C -15.8 °C 34567.7 hPa ESE 9 km/h 9 km/h 51 % 0 mm
20:55 -11.1 °C -16.3 °C 34533.8 hPa NE 7.7 km/h 7.7 km/h 53 % 0 mm
20:58 -10.3 °C -15.9 °C 34567.7 hPa ESE 9 km/h 9 km/h 51 % 0 mm
21:03 -10.3 °C -15.9 °C 34567.7 hPa ENE 9 km/h 9 km/h 51 % 0 mm
21:05 -11.2 °C -16.3 °C 34533.8 hPa Calm   2.6 km/h 53 % 0 mm
21:08 -10.4 °C -15.9 °C 34567.7 hPa NE 9 km/h 9 km/h 51 % 0 mm
21:13 -10.4 °C -15.8 °C 34567.7 hPa NE 3.1 km/h   52 % 0 mm
21:15 -11.1 °C -16.3 °C 34533.8 hPa NE 2.6 km/h 7.7 km/h 53 % 0 mm
21:18 -10.4 °C -15.8 °C 34567.7 hPa NNE 2.3 km/h   52 % 0 mm
21:23 -10.5 °C -15.9 °C 34567.7 hPa Calm     52 % 0 mm
21:25 -11.2 °C -16.3 °C 34533.8 hPa NE 2.6 km/h 2.6 km/h 53 % 0 mm
21:28 -10.6 °C -15.9 °C 34567.7 hPa NNE 4.2 km/h 4.2 km/h 52 % 0 mm
21:33 -10.5 °C -15.9 °C 34601.5 hPa NNE 6.3 km/h 6.3 km/h 52 % 0 mm
21:35 -11.2 °C -16.3 °C 34533.8 hPa North 2.6 km/h 2.6 km/h 53 % 0 mm
21:43 -10.5 °C -15.7 °C 34601.5 hPa NNE 6.3 km/h 6.3 km/h 53 % 0 mm
21:45 -11.2 °C -16.4 °C 34533.8 hPa Calm   2.6 km/h 53 % 0 mm
21:48 -10.4 °C -15.7 °C 34567.7 hPa NE 6 km/h 6 km/h 53 % 0 mm
21:55 -11.3 °C -16.6 °C 34533.8 hPa Calm   5.1 km/h 52 % 0 mm
21:58 -10.5 °C -15.7 °C 34567.7 hPa ENE 6.3 km/h 6.3 km/h 53 % 0 mm
22:03 -10.5 °C -15.7 °C 34567.7 hPa NE 9.8 km/h 9.8 km/h 53 % 0 mm
22:05 -11.3 °C -16.6 °C 34533.8 hPa Calm   5.1 km/h 52 % 0 mm
22:08 -10.5 °C -15.7 °C 34567.7 hPa NE 9 km/h 9 km/h 53 % 0 mm
22:13 -10.6 °C -15.8 °C 34567.7 hPa NNE 11.9 km/h 11.9 km/h 53 % 0 mm
22:15 -11.3 °C -16.6 °C 34533.8 hPa Calm   2.6 km/h 52 % 0 mm
22:18 -10.6 °C -15.8 °C 34567.7 hPa NNE 9.8 km/h 9.8 km/h 53 % 0 mm
22:23 -10.6 °C -15.6 °C 34567.7 hPa NE 6 km/h 6.3 km/h 54 % 0 mm
22:25 -11.3 °C -16.6 °C 34533.8 hPa Calm     52 % 0 mm
22:33 -10.7 °C -15.8 °C 34567.7 hPa NE 9.3 km/h 9.3 km/h 54 % 0 mm
22:35 -11.3 °C -16.6 °C 34533.8 hPa WSW 2.6 km/h 5.1 km/h 52 % 0 mm
22:38 -10.8 °C -15.8 °C 34567.7 hPa NNW 8 km/h 8 km/h 54 % 0 mm
22:43 -10.8 °C -15.9 °C 34567.7 hPa NNE 9 km/h 9 km/h 54 % 0 mm
22:45 -11.3 °C -16.7 °C 34533.8 hPa Calm   2.6 km/h 51 % 0 mm
22:48 -10.9 °C -15.9 °C 34567.7 hPa North 8 km/h 8 km/h 54 % 0 mm
22:55 -11.3 °C -16.8 °C 34533.8 hPa Calm     51 % 0 mm
23:05 -11.3 °C -16.6 °C 34533.8 hPa North 2.6 km/h 7.7 km/h 52 % 0 mm
23:15 -11.3 °C -16.6 °C 34496.6 hPa NE 2.6 km/h 5.1 km/h 52 % 0 mm
23:25 -11.4 °C -16.8 °C 34496.6 hPa Calm   7.7 km/h 51 % 0 mm
23:35 -11.4 °C -16.8 °C 34496.6 hPa NNE 7.7 km/h 7.7 km/h 51 % 0 mm
23:45 -11.5 °C -16.9 °C 34496.6 hPa Calm   2.6 km/h 51 % 0 mm
23:55 -11.5 °C -16.9 °C 34496.6 hPa NNW 2.6 km/h 5.1 km/h 51 % 0 mm
Meteo Sesrovires
Elogis d' Weather Underground - 1.5 mb

Guio original per  Jim McMurry - jmcmurry@mwt.net Adaptat per a la plantilla per  Wim van der Kuil - Leuven-Template.eu

Trobareu la nostra informacio del temps tambe a:

Weather Underground

AWEKAS